createdAt,value
2018-05-13T00:02:01.620Z,5.00
2018-05-13T00:04:28.021Z,5.50
2018-05-13T00:06:55.166Z,6.03
2018-05-13T00:09:21.553Z,5.23
2018-05-13T00:11:48.030Z,5.50
2018-05-13T00:14:15.201Z,5.87
2018-05-13T00:16:42.372Z,6.23
2018-05-13T00:19:08.809Z,5.83
2018-05-13T00:21:35.238Z,5.87
2018-05-13T00:24:01.690Z,6.07
2018-05-13T00:26:28.308Z,5.77
2018-05-13T00:28:54.784Z,5.73
2018-05-13T00:31:21.194Z,6.30
2018-05-13T00:33:47.609Z,6.30
2018-05-13T00:36:14.327Z,6.20
2018-05-13T00:38:40.835Z,6.27
2018-05-13T00:41:07.193Z,6.30
2018-05-13T00:43:34.348Z,5.90
2018-05-13T00:46:01.086Z,6.20
2018-05-13T00:48:27.450Z,6.00
2018-05-13T00:50:53.847Z,6.63
2018-05-13T00:53:21.089Z,6.90
2018-05-13T00:55:48.234Z,6.90
2018-05-13T00:58:16.140Z,7.10
2018-05-13T01:00:42.694Z,6.17
2018-05-13T01:03:09.051Z,6.43
2018-05-13T01:05:35.838Z,6.37
2018-05-13T01:08:02.325Z,6.53
2018-05-13T01:10:28.733Z,6.77
2018-05-13T01:12:55.365Z,6.13
2018-05-13T01:15:21.764Z,7.80
2018-05-13T01:17:48.155Z,7.23
2018-05-13T01:20:14.598Z,8.03
2018-05-13T01:22:40.995Z,7.17
2018-05-13T01:25:07.497Z,7.87
2018-05-13T01:27:33.996Z,8.10
2018-05-13T01:30:00.388Z,7.80
2018-05-13T01:32:26.841Z,7.68
2018-05-13T01:34:54.018Z,7.63
2018-05-13T01:37:20.410Z,7.73
2018-05-13T01:39:46.873Z,7.57
2018-05-13T01:42:13.559Z,7.33
2018-05-13T01:44:39.945Z,8.10
2018-05-13T01:47:07.195Z,7.27
2018-05-13T01:49:34.530Z,7.33
2018-05-13T01:52:01.232Z,6.40
2018-05-13T01:54:27.870Z,7.20
2018-05-13T01:56:54.361Z,7.00
2018-05-13T01:59:20.885Z,6.63
2018-05-13T02:01:47.275Z,7.23
2018-05-13T02:04:14.014Z,7.27
2018-05-13T02:06:40.430Z,6.47
2018-05-13T02:09:07.601Z,6.37
2018-05-13T02:11:34.032Z,6.83
2018-05-13T02:14:00.478Z,7.07
2018-05-13T02:16:26.951Z,6.60
2018-05-13T02:18:54.819Z,6.13
2018-05-13T02:21:21.168Z,6.50
2018-05-13T02:23:48.353Z,5.90
2018-05-13T02:26:14.755Z,6.10
2018-05-13T02:28:41.998Z,5.43
2018-05-13T02:31:09.173Z,5.90
2018-05-13T02:33:35.646Z,6.10
2018-05-13T02:36:02.038Z,5.40
2018-05-13T02:38:28.622Z,5.80
2018-05-13T02:40:55.027Z,5.07
2018-05-13T02:43:21.640Z,5.37
2018-05-13T02:45:48.038Z,5.00
2018-05-13T02:48:15.171Z,5.30
2018-05-13T02:50:43.094Z,4.97
2018-05-13T02:53:09.521Z,5.40
2018-05-13T02:55:37.090Z,5.23
2018-05-13T02:58:03.742Z,5.00
2018-05-13T03:00:30.224Z,5.00
2018-05-13T03:02:56.609Z,4.90
2018-05-13T03:05:23.012Z,4.90
2018-05-13T03:07:50.784Z,5.07
2018-05-13T03:10:17.230Z,5.07
2018-05-13T03:12:43.584Z,4.77
2018-05-13T03:15:10.021Z,5.73
2018-05-13T03:17:36.468Z,5.85
2018-05-13T03:20:03.073Z,5.53
2018-05-13T03:22:29.554Z,5.40
2018-05-13T03:24:57.464Z,5.00
2018-05-13T03:27:23.880Z,5.40
2018-05-13T03:29:50.305Z,5.10
2018-05-13T03:32:17.507Z,4.85
2018-05-13T03:34:44.102Z,5.47
2018-05-13T03:37:11.266Z,5.37
2018-05-13T03:39:37.814Z,5.20
2018-05-13T03:42:04.470Z,5.10
2018-05-13T03:44:30.872Z,5.18
2018-05-13T03:46:57.377Z,4.68
2018-05-13T03:49:24.524Z,4.47
2018-05-13T03:51:51.643Z,4.00
2018-05-13T03:54:18.115Z,4.35
2018-05-13T03:56:45.261Z,4.40
2018-05-13T03:59:12.367Z,4.22
2018-05-13T04:01:38.772Z,4.62
2018-05-13T04:04:05.400Z,4.10
2018-05-13T04:06:31.904Z,4.18
2018-05-13T04:09:16.661Z,4.10
2018-05-13T04:12:02.992Z,3.33
2018-05-13T04:14:48.524Z,4.57
2018-05-13T04:17:15.216Z,4.00
2018-05-13T04:19:41.677Z,3.62
2018-05-13T04:22:08.061Z,3.35
2018-05-13T04:24:35.537Z,3.67
2018-05-13T04:27:02.654Z,3.73
2018-05-13T04:29:29.433Z,3.40
2018-05-13T04:31:55.787Z,3.60
2018-05-13T04:34:22.157Z,3.67
2018-05-13T04:36:49.308Z,3.67
2018-05-13T04:39:15.799Z,3.43
2018-05-13T04:41:42.226Z,3.67
2018-05-13T04:44:08.697Z,3.53
2018-05-13T04:46:35.082Z,3.43
2018-05-13T04:49:01.460Z,3.72
2018-05-13T04:51:27.872Z,3.45
2018-05-13T04:53:54.581Z,3.53
2018-05-13T04:56:21.047Z,3.50
2018-05-13T04:58:47.449Z,3.67
2018-05-13T05:01:13.809Z,3.30
2018-05-13T05:03:40.291Z,3.83
2018-05-13T05:06:07.536Z,3.93
2018-05-13T05:08:33.915Z,4.17
2018-05-13T05:11:00.632Z,4.03
2018-05-13T05:13:27.054Z,4.00
2018-05-13T05:15:54.182Z,3.70
2018-05-13T05:18:20.618Z,3.70
2018-05-13T05:20:47.253Z,3.63
2018-05-13T05:23:13.628Z,4.50
2018-05-13T05:25:40.034Z,4.10
2018-05-13T05:28:07.192Z,4.20
2018-05-13T05:30:34.286Z,4.13
2018-05-13T05:33:00.675Z,4.57
2018-05-13T05:35:27.849Z,4.40
2018-05-13T05:37:54.293Z,3.93
2018-05-13T05:40:20.693Z,4.23
2018-05-13T05:42:47.825Z,4.23
2018-05-13T05:45:14.945Z,4.30
2018-05-13T05:47:41.489Z,4.30
2018-05-13T05:50:07.913Z,4.37
2018-05-13T05:52:34.298Z,4.40
2018-05-13T05:55:00.704Z,4.40
2018-05-13T05:57:27.187Z,4.33
2018-05-13T05:59:53.582Z,4.23
2018-05-13T06:02:20.797Z,4.33
2018-05-13T06:04:47.396Z,4.00
2018-05-13T06:07:15.326Z,4.53
2018-05-13T06:09:41.845Z,4.30
2018-05-13T06:12:08.957Z,3.80
2018-05-13T06:14:35.401Z,4.13
2018-05-13T06:17:02.094Z,4.47
2018-05-13T06:19:28.478Z,4.63
2018-05-13T06:21:54.934Z,4.20
2018-05-13T06:24:21.305Z,4.20
2018-05-13T06:26:47.768Z,3.80
2018-05-13T06:29:14.201Z,4.27
2018-05-13T06:31:40.590Z,4.27
2018-05-13T06:34:07.788Z,4.50
2018-05-13T06:36:34.174Z,4.17
2018-05-13T06:39:01.324Z,4.77
2018-05-13T06:41:28.556Z,4.30
2018-05-13T06:43:55.016Z,4.77
2018-05-13T06:46:22.209Z,4.40
2018-05-13T06:48:48.840Z,4.50
2018-05-13T06:51:15.347Z,4.60
2018-05-13T06:53:41.618Z,4.43
2018-05-13T06:56:08.022Z,5.07
2018-05-13T06:58:34.511Z,5.00
2018-05-13T07:01:00.940Z,5.27
2018-05-13T07:03:27.480Z,4.90
2018-05-13T07:05:53.974Z,4.90
2018-05-13T07:08:20.370Z,5.37
2018-05-13T07:10:46.786Z,5.77
2018-05-13T07:13:13.898Z,5.83
2018-05-13T07:15:40.390Z,5.17
2018-05-13T07:18:06.936Z,5.00
2018-05-13T07:20:33.481Z,5.07
2018-05-13T07:23:00.044Z,5.20
2018-05-13T07:25:26.548Z,5.47
2018-05-13T07:27:52.935Z,5.70
2018-05-13T07:30:19.344Z,5.80
2018-05-13T07:32:45.802Z,6.50
2018-05-13T07:35:13.027Z,5.87
2018-05-13T07:37:39.471Z,5.50
2018-05-13T07:40:05.862Z,5.30
2018-05-13T07:42:32.586Z,5.60
2018-05-13T07:44:59.109Z,5.70
2018-05-13T07:47:26.347Z,5.83
2018-05-13T07:49:53.017Z,6.03
2018-05-13T07:52:19.846Z,5.97
2018-05-13T07:54:47.412Z,5.97
2018-05-13T07:57:13.813Z,6.37
2018-05-13T07:59:40.259Z,5.77
2018-05-13T08:02:07.467Z,5.90
2018-05-13T08:04:34.048Z,6.47
2018-05-13T08:07:01.284Z,6.77
2018-05-13T08:09:27.831Z,6.50
2018-05-13T08:11:54.219Z,5.90
2018-05-13T08:14:20.606Z,6.20
2018-05-13T08:16:47.777Z,6.40
2018-05-13T08:19:14.270Z,6.90
2018-05-13T08:21:40.641Z,5.93
2018-05-13T08:24:07.075Z,6.13
2018-05-13T08:26:33.677Z,6.03
2018-05-13T08:29:00.090Z,6.50
2018-05-13T08:31:26.596Z,6.17
2018-05-13T08:33:53.050Z,5.90
2018-05-13T08:36:19.405Z,6.00
2018-05-13T08:38:47.729Z,5.77
2018-05-13T08:41:14.138Z,5.70
2018-05-13T08:43:41.300Z,5.77
2018-05-13T08:46:07.991Z,5.53
2018-05-13T08:48:34.445Z,5.20
2018-05-13T08:51:01.640Z,5.10
2018-05-13T08:53:28.916Z,5.30
2018-05-13T08:55:55.539Z,5.57
2018-05-13T08:58:22.247Z,5.33
2018-05-13T09:00:49.640Z,4.53
2018-05-13T09:03:16.295Z,4.60
2018-05-13T09:05:42.772Z,4.50
2018-05-13T09:08:10.166Z,4.83
2018-05-13T09:10:36.749Z,4.30
2018-05-13T09:13:04.089Z,4.93
2018-05-13T09:15:31.349Z,4.70
2018-05-13T09:17:58.074Z,4.10
2018-05-13T09:20:25.571Z,4.60
2018-05-13T09:22:52.869Z,5.00
2018-05-13T09:25:19.295Z,4.60
2018-05-13T09:27:46.203Z,4.60
2018-05-13T09:30:12.950Z,4.10
2018-05-13T09:32:39.344Z,4.70
2018-05-13T09:35:05.857Z,5.23
2018-05-13T09:37:32.894Z,5.53
2018-05-13T09:39:59.399Z,6.50
2018-05-13T09:42:25.791Z,5.47
2018-05-13T09:44:53.898Z,5.30
2018-05-13T09:47:20.358Z,5.93
2018-05-13T09:49:46.837Z,5.57
2018-05-13T09:52:14.017Z,5.85
2018-05-13T09:54:40.387Z,6.03
2018-05-13T09:57:06.811Z,5.73
2018-05-13T09:59:33.280Z,7.30
2018-05-13T10:01:59.741Z,6.47
2018-05-13T10:04:26.938Z,6.63
2018-05-13T10:06:53.820Z,6.37
2018-05-13T10:09:21.129Z,7.57
2018-05-13T10:11:47.655Z,6.93
2018-05-13T10:14:14.211Z,7.77
2018-05-13T10:16:40.590Z,7.37
2018-05-13T10:19:08.011Z,7.13
2018-05-13T10:21:34.669Z,8.13
2018-05-13T10:24:02.048Z,7.80
2018-05-13T10:26:28.433Z,8.33
2018-05-13T10:28:55.038Z,8.37
2018-05-13T10:31:21.757Z,9.15
2018-05-13T10:33:48.154Z,9.48
2018-05-13T10:36:14.583Z,9.35
2018-05-13T10:38:41.987Z,9.43
2018-05-13T10:41:08.479Z,10.37
2018-05-13T10:43:34.919Z,9.63
2018-05-13T10:46:02.096Z,9.30
2018-05-13T10:48:28.584Z,9.93
2018-05-13T10:50:55.194Z,10.37
2018-05-13T10:53:21.726Z,9.37
2018-05-13T10:55:48.116Z,9.43
2018-05-13T10:58:15.353Z,9.00
2018-05-13T11:00:42.427Z,10.43
2018-05-13T11:03:09.634Z,9.93
2018-05-13T11:05:36.045Z,9.70
2018-05-13T11:08:02.760Z,9.90
2018-05-13T11:10:29.346Z,9.57
2018-05-13T11:12:55.896Z,9.63
2018-05-13T11:15:23.442Z,9.50
2018-05-13T11:17:51.384Z,11.43
2018-05-13T11:20:17.816Z,10.80
2018-05-13T11:22:44.217Z,10.30
2018-05-13T11:25:11.382Z,9.70
2018-05-13T11:27:38.100Z,10.60
2018-05-13T11:30:04.857Z,10.50
2018-05-13T11:32:31.239Z,11.73
2018-05-13T11:34:57.752Z,11.50
2018-05-13T11:37:24.438Z,13.00
2018-05-13T11:39:51.993Z,12.33
2018-05-13T11:42:18.406Z,12.97
2018-05-13T11:44:45.710Z,12.33
2018-05-13T11:47:12.228Z,12.80
2018-05-13T11:49:39.513Z,14.07
2018-05-13T11:52:06.232Z,13.30
2018-05-13T11:54:32.598Z,13.97
2018-05-13T11:56:59.384Z,15.87
2018-05-13T11:59:26.538Z,15.23
2018-05-13T12:01:53.901Z,13.73
2018-05-13T12:04:21.092Z,13.37
2018-05-13T12:06:47.554Z,12.70
2018-05-13T12:09:13.968Z,13.63
2018-05-13T12:11:40.526Z,13.40
2018-05-13T12:14:07.077Z,14.60
2018-05-13T12:16:34.204Z,14.63
2018-05-13T12:19:01.474Z,13.60
2018-05-13T12:21:27.787Z,13.20
2018-05-13T12:23:55.189Z,12.53
2018-05-13T12:26:21.574Z,12.27
2018-05-13T12:28:48.037Z,12.33
2018-05-13T12:31:14.442Z,11.97
2018-05-13T12:33:40.881Z,11.67
2018-05-13T12:36:07.280Z,12.03
2018-05-13T12:38:33.737Z,11.73
2018-05-13T12:41:00.165Z,11.33
2018-05-13T12:43:26.517Z,10.70
2018-05-13T12:45:53.025Z,10.90
2018-05-13T12:48:19.465Z,10.17
2018-05-13T12:50:45.853Z,10.17
2018-05-13T12:53:12.257Z,10.27
2018-05-13T12:55:39.398Z,11.00
2018-05-13T12:58:05.860Z,15.40
2018-05-13T13:00:32.240Z,10.73
2018-05-13T13:02:58.620Z,11.33
2018-05-13T13:05:25.011Z,10.90
2018-05-13T13:07:51.692Z,11.23
2018-05-13T13:10:18.109Z,10.23
2018-05-13T13:12:45.242Z,11.93
2018-05-13T13:15:11.805Z,13.70
2018-05-13T13:17:45.893Z,16.17
2018-05-13T13:20:13.471Z,11.57
2018-05-13T13:22:40.683Z,19.47
2018-05-13T13:25:07.124Z,15.33
2018-05-13T13:27:33.588Z,14.50
2018-05-13T13:30:01.063Z,15.93
2018-05-13T13:32:27.571Z,13.27
2018-05-13T13:34:54.332Z,13.97
2018-05-13T13:37:21.454Z,14.20
2018-05-13T13:39:47.875Z,19.00
2018-05-13T13:42:14.265Z,15.43
2018-05-13T13:44:40.701Z,14.50
2018-05-13T13:47:07.099Z,14.10
2018-05-13T13:49:34.241Z,13.30
2018-05-13T13:52:01.716Z,13.10
2018-05-13T13:54:28.919Z,12.20
2018-05-13T13:56:55.606Z,12.30
2018-05-13T13:59:21.994Z,12.33
2018-05-13T14:01:49.168Z,12.33
2018-05-13T14:04:16.320Z,11.67
2018-05-13T14:06:43.442Z,11.73
2018-05-13T14:09:09.943Z,12.30
2018-05-13T14:11:36.308Z,11.13
2018-05-13T14:14:02.734Z,11.00
2018-05-13T14:16:29.287Z,16.37
2018-05-13T14:18:55.704Z,13.43
2018-05-13T14:21:22.138Z,12.40
2018-05-13T14:23:48.852Z,10.97
2018-05-13T14:26:15.995Z,12.10
2018-05-13T14:28:42.402Z,13.17
2018-05-13T14:31:09.555Z,12.57
2018-05-13T14:33:36.753Z,12.60
2018-05-13T14:36:03.275Z,11.87
2018-05-13T14:38:30.042Z,11.80
2018-05-13T14:40:56.581Z,10.53
2018-05-13T14:43:22.930Z,10.73
2018-05-13T14:45:49.593Z,10.00
2018-05-13T14:48:16.473Z,10.10
2018-05-13T14:50:43.007Z,10.17
2018-05-13T14:53:09.507Z,10.03
2018-05-13T14:55:35.939Z,10.17
2018-05-13T14:58:02.405Z,9.93
2018-05-13T15:00:29.602Z,9.38
2018-05-13T15:02:56.786Z,10.17
2018-05-13T15:05:23.510Z,9.40
2018-05-13T15:07:50.645Z,9.73
2018-05-13T15:10:18.121Z,9.53
2018-05-13T15:12:44.735Z,9.27
2018-05-13T15:15:11.936Z,10.00
2018-05-13T15:17:38.401Z,9.17
2018-05-13T15:20:04.884Z,9.27
2018-05-13T15:22:33.278Z,9.00
2018-05-13T15:24:59.729Z,8.98
2018-05-13T15:27:26.182Z,9.52
2018-05-13T15:29:52.592Z,10.07
2018-05-13T15:32:26.781Z,9.55
2018-05-13T15:34:53.161Z,10.63
2018-05-13T15:37:19.681Z,9.90
2018-05-13T15:39:46.061Z,10.25
2018-05-13T15:42:13.250Z,10.27
2018-05-13T15:44:39.692Z,10.30
2018-05-13T15:47:06.987Z,9.82
2018-05-13T15:49:34.220Z,10.80
2018-05-13T15:52:01.047Z,10.10
2018-05-13T15:54:27.431Z,9.23
2018-05-13T15:56:53.809Z,10.30
2018-05-13T15:59:20.278Z,9.23
2018-05-13T16:01:47.465Z,9.23
2018-05-13T16:04:13.887Z,8.90
2018-05-13T16:06:40.364Z,9.57
2018-05-13T16:09:06.828Z,9.63
2018-05-13T16:11:34.013Z,9.27
2018-05-13T16:14:00.450Z,9.15
2018-05-13T16:16:26.905Z,9.82
2018-05-13T16:18:53.563Z,8.98
2018-05-13T16:21:20.328Z,8.82
2018-05-13T16:23:47.595Z,8.90
2018-05-13T16:26:14.188Z,9.63
2018-05-13T16:28:40.913Z,9.25
2018-05-13T16:31:07.364Z,8.35
2018-05-13T16:33:34.050Z,9.00
2018-05-13T16:36:00.437Z,8.55
2018-05-13T16:38:26.866Z,7.97
2018-05-13T16:40:53.354Z,8.30
2018-05-13T16:43:23.872Z,8.13
2018-05-13T16:45:51.051Z,8.37
2018-05-13T16:51:03.629Z,8.13
2018-05-13T16:53:42.931Z,7.83
2018-05-13T16:56:09.333Z,9.97
2018-05-13T16:58:40.251Z,8.83
2018-05-13T17:01:07.147Z,9.00
2018-05-13T17:03:40.607Z,8.60
2018-05-13T17:06:07.789Z,9.43
2018-05-13T17:08:34.490Z,8.90
2018-05-13T17:11:00.949Z,8.55
2018-05-13T17:13:27.464Z,9.20
2018-05-13T17:15:54.715Z,9.27
2018-05-13T17:18:21.866Z,9.02
2018-05-13T17:20:48.285Z,9.75
2018-05-13T17:23:16.695Z,8.95
2018-05-13T17:25:43.101Z,8.95
2018-05-13T17:28:09.827Z,9.63
2018-05-13T17:30:36.999Z,9.13
2018-05-13T17:33:03.634Z,9.30
2018-05-13T17:35:30.210Z,9.10
2018-05-13T17:37:57.965Z,9.32
2018-05-13T17:40:24.522Z,14.77
2018-05-13T17:42:51.225Z,15.73
2018-05-13T17:45:17.868Z,11.02
2018-05-13T17:47:44.369Z,9.77
2018-05-13T17:50:10.821Z,10.15
2018-05-13T17:52:37.286Z,11.93
2018-05-13T17:55:04.752Z,19.17
2018-05-13T17:57:31.606Z,11.30
2018-05-13T17:59:59.001Z,10.70
2018-05-13T18:05:00.841Z,10.30
2018-05-13T18:07:28.538Z,8.90
2018-05-13T18:10:00.251Z,9.15
2018-05-13T18:12:26.715Z,8.63
2018-05-13T18:15:01.874Z,9.25
2018-05-13T18:17:28.917Z,9.40
2018-05-13T18:19:55.312Z,9.55
2018-05-13T18:22:21.769Z,9.38
2018-05-13T18:24:49.600Z,8.93
2018-05-13T18:27:16.101Z,9.32
2018-05-13T18:29:42.663Z,8.75
2018-05-13T18:34:50.551Z,8.85
2018-05-13T18:37:16.942Z,8.90
2018-05-13T18:39:44.191Z,8.57
2018-05-13T18:42:10.701Z,8.98
2018-05-13T18:44:37.272Z,8.25
2018-05-13T18:47:03.888Z,8.95
2018-05-13T18:49:30.477Z,9.20
2018-05-13T18:51:57.093Z,9.48
2018-05-13T18:54:25.784Z,9.15
2018-05-13T18:56:54.000Z,9.52
2018-05-13T18:59:21.661Z,9.75
2018-05-13T19:01:49.807Z,9.15
2018-05-13T19:04:16.566Z,9.77
2018-05-13T19:06:44.189Z,9.90
2018-05-13T19:09:11.516Z,9.60
2018-05-13T19:11:38.090Z,9.90
2018-05-13T19:14:04.431Z,9.25
2018-05-13T19:16:30.832Z,9.07
2018-05-13T19:18:57.482Z,9.68
2018-05-13T19:21:24.329Z,9.23
2018-05-13T19:23:51.003Z,8.68
2018-05-13T19:26:17.601Z,9.77
2018-05-13T19:28:44.717Z,9.77
2018-05-13T19:31:11.091Z,9.35
2018-05-13T19:33:37.502Z,8.80
2018-05-13T19:36:03.876Z,9.30
2018-05-13T19:38:30.352Z,9.32
2018-05-13T19:40:56.958Z,8.98
2018-05-13T19:43:23.536Z,9.85
2018-05-13T19:45:49.945Z,9.15
2018-05-13T19:48:17.407Z,9.13
2018-05-13T19:50:44.586Z,9.75
2018-05-13T19:53:12.727Z,9.93
2018-05-13T19:55:39.526Z,10.40
2018-05-13T19:58:05.921Z,9.45
2018-05-13T20:00:33.587Z,9.15
2018-05-13T20:03:01.009Z,8.40
2018-05-13T20:05:27.503Z,9.98
2018-05-13T20:07:54.732Z,8.77
2018-05-13T20:10:21.227Z,9.48
2018-05-13T20:12:47.749Z,8.95
2018-05-13T20:15:14.216Z,9.00
2018-05-13T20:17:41.673Z,8.53
2018-05-13T20:20:08.806Z,8.52
2018-05-13T20:22:53.753Z,8.90
2018-05-13T20:25:21.822Z,8.65
2018-05-13T20:27:48.346Z,8.15
2018-05-13T20:30:15.015Z,8.68
2018-05-13T20:32:41.399Z,9.50
2018-05-13T20:35:07.831Z,27.73
2018-05-13T20:37:35.302Z,13.43
2018-05-13T20:40:04.375Z,9.30
2018-05-13T20:42:33.613Z,11.50
2018-05-13T20:45:01.589Z,9.13
2018-05-13T20:47:30.019Z,8.98
2018-05-13T20:49:57.487Z,8.32
2018-05-13T20:52:25.833Z,8.48
2018-05-13T20:54:52.398Z,8.77
2018-05-13T20:57:21.400Z,19.55
2018-05-13T20:59:47.993Z,17.65
2018-05-13T21:02:14.468Z,9.10
2018-05-13T21:04:40.959Z,8.40
2018-05-13T21:07:07.656Z,8.27
2018-05-13T21:09:34.108Z,8.23
2018-05-13T21:12:00.655Z,8.52
2018-05-13T21:14:27.365Z,8.07
2018-05-13T21:16:53.930Z,9.07
2018-05-13T21:19:20.420Z,8.77
2018-05-13T21:21:46.887Z,8.60
2018-05-13T21:24:13.591Z,9.00
2018-05-13T21:26:40.287Z,9.50
2018-05-13T21:29:06.718Z,9.85
2018-05-13T21:31:33.461Z,9.82
2018-05-13T21:33:59.941Z,9.07
2018-05-13T21:36:26.556Z,9.73
2018-05-13T21:38:54.460Z,9.18
2018-05-13T21:41:20.833Z,10.43
2018-05-13T21:43:47.352Z,10.90
2018-05-13T21:46:13.799Z,10.27
2018-05-13T21:48:40.398Z,10.80
2018-05-13T21:51:06.964Z,10.55
2018-05-13T21:53:33.408Z,10.32
2018-05-13T21:55:59.825Z,10.35
2018-05-13T21:58:26.282Z,10.63
2018-05-13T22:00:53.500Z,10.00
2018-05-13T22:03:20.061Z,10.18
2018-05-13T22:05:46.480Z,10.95
2018-05-13T22:08:12.965Z,10.13
2018-05-13T22:10:39.426Z,10.32
2018-05-13T22:13:05.860Z,10.35
2018-05-13T22:15:32.208Z,11.07
2018-05-13T22:17:58.794Z,10.65
2018-05-13T22:20:25.220Z,10.27
2018-05-13T22:22:52.320Z,10.32
2018-05-13T22:25:18.801Z,10.60
2018-05-13T22:27:45.185Z,10.82
2018-05-13T22:30:13.093Z,11.10
2018-05-13T22:35:13.246Z,11.20
2018-05-13T22:37:40.417Z,11.48
2018-05-13T22:40:06.814Z,11.65
2018-05-13T22:42:34.025Z,11.70
2018-05-13T22:45:00.566Z,11.90
2018-05-13T22:47:27.090Z,11.93
2018-05-13T22:49:53.549Z,11.55
2018-05-13T22:52:20.072Z,11.25
2018-05-13T22:54:47.520Z,12.20
2018-05-13T22:57:14.005Z,12.10
2018-05-13T22:59:41.142Z,12.68
2018-05-13T23:02:08.316Z,12.25
2018-05-13T23:04:34.716Z,12.70
2018-05-13T23:07:02.573Z,12.35
2018-05-13T23:09:29.010Z,12.43
2018-05-13T23:11:55.692Z,12.35
2018-05-13T23:14:22.152Z,13.00
2018-05-13T23:16:49.341Z,12.68
2018-05-13T23:19:15.883Z,12.75
2018-05-13T23:21:44.224Z,12.48
2018-05-13T23:24:10.739Z,13.50
2018-05-13T23:26:37.182Z,12.35
2018-05-13T23:29:03.645Z,12.95
2018-05-13T23:31:30.038Z,12.77
2018-05-13T23:33:56.438Z,12.25
2018-05-13T23:36:23.665Z,13.03
2018-05-13T23:38:50.448Z,12.88
2018-05-13T23:41:16.960Z,13.00
2018-05-13T23:43:43.335Z,14.07
2018-05-13T23:46:09.765Z,14.60
2018-05-13T23:48:36.169Z,14.70
2018-05-13T23:51:03.611Z,15.07
2018-05-13T23:53:30.774Z,15.13
2018-05-13T23:55:57.957Z,16.15
2018-05-13T23:58:24.365Z,14.68
